createdAt,value
2019-02-19T00:01:16.522Z,52.25
2019-02-19T00:03:48.064Z,49.10
2019-02-19T00:06:18.387Z,49.38
2019-02-19T00:08:48.736Z,50.03
2019-02-19T00:11:19.078Z,52.40
2019-02-19T00:13:49.457Z,56.33
2019-02-19T00:16:19.737Z,52.78
2019-02-19T00:18:50.120Z,47.80
2019-02-19T00:21:20.435Z,58.50
2019-02-19T00:23:50.888Z,55.23
2019-02-19T00:26:21.264Z,51.77
2019-02-19T00:28:52.004Z,44.80
2019-02-19T00:31:22.350Z,41.75
2019-02-19T00:33:54.135Z,43.08
2019-02-19T00:36:24.762Z,36.73
2019-02-19T00:38:55.058Z,50.52
2019-02-19T00:41:25.418Z,45.58
2019-02-19T00:43:55.738Z,49.00
2019-02-19T00:46:26.072Z,49.03
2019-02-19T00:48:56.414Z,56.73
2019-02-19T00:51:26.746Z,51.48
2019-02-19T00:53:57.080Z,51.48
2019-02-19T00:56:27.512Z,58.00
2019-02-19T00:58:57.836Z,60.83
2019-02-19T01:01:28.255Z,53.13
2019-02-19T01:03:58.590Z,55.50
2019-02-19T01:06:29.452Z,47.53
2019-02-19T01:08:59.871Z,57.08
2019-02-19T01:11:30.176Z,48.95
2019-02-19T01:14:00.552Z,56.08
2019-02-19T01:16:30.857Z,55.73
2019-02-19T01:19:01.236Z,53.58
2019-02-19T01:21:31.563Z,56.45
2019-02-19T01:24:01.959Z,55.80
2019-02-19T01:26:33.348Z,51.98
2019-02-19T01:29:03.747Z,55.58
2019-02-19T01:31:34.118Z,55.52
2019-02-19T01:34:04.494Z,62.48
2019-02-19T01:36:35.996Z,55.17
2019-02-19T01:39:06.803Z,60.67
2019-02-19T01:41:37.115Z,48.20
2019-02-19T01:44:07.476Z,47.48
2019-02-19T01:46:37.858Z,54.85
2019-02-19T01:49:08.954Z,54.33
2019-02-19T01:51:39.330Z,51.85
2019-02-19T01:54:09.672Z,57.85
2019-02-19T01:56:40.056Z,53.70
2019-02-19T01:59:10.344Z,57.38
2019-02-19T02:01:40.758Z,57.13
2019-02-19T02:04:11.046Z,50.90
2019-02-19T02:06:41.416Z,55.98
2019-02-19T02:09:11.763Z,43.45
2019-02-19T02:11:42.120Z,49.55
2019-02-19T02:14:12.436Z,55.03
2019-02-19T02:16:42.792Z,54.88
2019-02-19T02:19:13.182Z,54.18
2019-02-19T02:21:43.584Z,57.90
2019-02-19T02:24:14.876Z,57.43
2019-02-19T02:26:46.399Z,59.85
2019-02-19T02:29:16.734Z,62.23
2019-02-19T02:31:47.542Z,54.63
2019-02-19T02:34:17.894Z,59.03
2019-02-19T02:36:49.708Z,58.40
2019-02-19T02:39:20.064Z,60.35
2019-02-19T02:41:50.358Z,60.90
2019-02-19T02:44:20.801Z,54.03
2019-02-19T02:46:51.514Z,52.10
2019-02-19T02:49:21.860Z,47.85
2019-02-19T02:51:52.316Z,59.20
2019-02-19T02:54:22.612Z,70.90
2019-02-19T02:56:52.936Z,50.40
2019-02-19T02:59:23.259Z,58.02
2019-02-19T03:01:53.582Z,55.03
2019-02-19T03:04:23.924Z,59.53
2019-02-19T03:07:06.246Z,57.00
2019-02-19T03:09:36.548Z,58.25
2019-02-19T03:12:06.958Z,70.78
2019-02-19T03:14:37.322Z,47.05
2019-02-19T03:17:07.694Z,54.93
2019-02-19T03:19:38.050Z,63.58
2019-02-19T03:22:08.398Z,57.43
2019-02-19T03:24:38.736Z,62.23
2019-02-19T03:27:09.061Z,58.90
2019-02-19T03:29:39.451Z,61.40
2019-02-19T03:32:10.890Z,61.02
2019-02-19T03:34:41.222Z,57.23
2019-02-19T03:37:12.847Z,47.93
2019-02-19T03:39:43.154Z,53.75
2019-02-19T03:42:13.500Z,51.10
2019-02-19T03:44:43.872Z,54.60
2019-02-19T03:47:14.177Z,52.88
2019-02-19T03:49:44.562Z,62.55
2019-02-19T03:52:15.320Z,59.35
2019-02-19T03:54:46.116Z,53.78
2019-02-19T03:57:16.474Z,56.68
2019-02-19T03:59:46.822Z,54.67
2019-02-19T04:02:17.185Z,57.00
2019-02-19T04:04:47.562Z,60.23
2019-02-19T04:07:17.896Z,66.72
2019-02-19T04:09:48.252Z,61.28
2019-02-19T04:12:18.565Z,52.98
2019-02-19T04:14:49.029Z,58.38
2019-02-19T04:17:19.390Z,54.30
2019-02-19T04:19:49.760Z,61.65
2019-02-19T04:22:20.122Z,60.12
2019-02-19T04:24:50.504Z,64.32
2019-02-19T04:27:20.874Z,64.72
2019-02-19T04:29:51.326Z,59.40
2019-02-19T04:32:21.729Z,54.08
2019-02-19T04:34:52.076Z,57.20
2019-02-19T04:37:23.403Z,52.62
2019-02-19T04:39:54.120Z,63.08
2019-02-19T04:42:24.552Z,60.60
2019-02-19T04:44:55.294Z,48.92
2019-02-19T04:47:25.647Z,50.70
2019-02-19T04:49:56.007Z,54.33
2019-02-19T04:52:26.303Z,66.55
2019-02-19T04:54:57.055Z,61.90
2019-02-19T04:57:27.445Z,58.55
2019-02-19T04:59:57.729Z,58.38
2019-02-19T05:02:28.067Z,48.10
2019-02-19T05:04:58.433Z,54.88
2019-02-19T05:07:30.278Z,58.42
2019-02-19T05:10:00.618Z,60.75
2019-02-19T05:12:30.968Z,60.45
2019-02-19T05:15:02.270Z,60.43
2019-02-19T05:17:33.675Z,59.42
2019-02-19T05:20:04.247Z,61.33
2019-02-19T05:22:34.571Z,55.75
2019-02-19T05:25:05.121Z,55.58
2019-02-19T05:27:35.428Z,57.62
2019-02-19T05:30:06.138Z,60.05
2019-02-19T05:32:36.444Z,64.25
2019-02-19T05:35:07.140Z,58.83
2019-02-19T05:37:37.478Z,60.92
2019-02-19T05:40:07.850Z,49.23
2019-02-19T05:42:38.236Z,58.38
2019-02-19T05:45:08.801Z,54.27
2019-02-19T05:47:39.152Z,62.25
2019-02-19T05:50:09.604Z,52.70
2019-02-19T05:52:40.262Z,51.37
2019-02-19T05:55:10.629Z,51.73
2019-02-19T05:57:40.957Z,60.00
2019-02-19T06:00:11.965Z,58.90
2019-02-19T06:02:42.288Z,58.33
2019-02-19T06:05:12.676Z,60.08
2019-02-19T06:07:43.051Z,56.25
2019-02-19T06:10:13.580Z,49.35
2019-02-19T06:12:43.987Z,49.77
2019-02-19T06:15:14.455Z,60.52
2019-02-19T06:17:44.821Z,53.38
2019-02-19T06:20:15.242Z,54.73
2019-02-19T06:22:45.656Z,54.85
2019-02-19T06:25:15.960Z,47.38
2019-02-19T06:27:46.300Z,49.38
2019-02-19T06:30:16.686Z,49.40
2019-02-19T06:32:47.095Z,54.75
2019-02-19T06:35:17.462Z,45.92
2019-02-19T06:37:48.260Z,48.60
2019-02-19T06:40:29.024Z,50.35
2019-02-19T06:42:59.368Z,47.62
2019-02-19T06:45:29.739Z,47.67
2019-02-19T06:48:00.140Z,47.23
2019-02-19T06:50:30.503Z,42.00
2019-02-19T06:53:00.821Z,53.28
2019-02-19T06:55:31.166Z,42.10
2019-02-19T06:58:01.508Z,37.90
2019-02-19T07:00:31.847Z,44.45
2019-02-19T07:03:21.165Z,50.92
2019-02-19T07:05:51.504Z,40.05
2019-02-19T07:08:21.838Z,49.93
2019-02-19T07:10:52.182Z,49.38
2019-02-19T07:13:22.504Z,50.33
2019-02-19T07:15:52.844Z,43.85
2019-02-19T07:18:24.464Z,37.10
2019-02-19T07:20:54.840Z,41.40
2019-02-19T07:23:25.192Z,42.48
2019-02-19T07:25:55.588Z,46.98
2019-02-19T07:28:25.912Z,47.60
2019-02-19T07:30:56.286Z,41.02
2019-02-19T07:33:26.680Z,42.90
2019-02-19T07:35:57.054Z,46.58
2019-02-19T07:38:29.867Z,38.50
2019-02-19T07:40:59.776Z,46.65
2019-02-19T07:43:30.736Z,42.40
2019-02-19T07:46:01.056Z,36.73
2019-02-19T07:48:31.400Z,37.17
2019-02-19T07:51:01.742Z,43.78
2019-02-19T07:53:32.088Z,37.35
2019-02-19T07:56:02.458Z,40.25
2019-02-19T07:58:32.834Z,37.98
2019-02-19T08:01:04.072Z,39.95
2019-02-19T08:03:34.531Z,36.25
2019-02-19T08:06:04.906Z,48.45
2019-02-19T08:08:35.941Z,36.53
2019-02-19T08:11:07.566Z,38.73
2019-02-19T08:13:37.974Z,37.90
2019-02-19T08:16:08.411Z,40.60
2019-02-19T08:18:39.758Z,32.65
2019-02-19T08:21:10.140Z,31.77
2019-02-19T08:23:40.484Z,33.98
2019-02-19T08:26:10.880Z,38.08
2019-02-19T08:28:41.222Z,40.92
2019-02-19T08:31:11.581Z,35.90
2019-02-19T08:33:41.976Z,33.98
2019-02-19T08:36:12.304Z,36.33
2019-02-19T08:38:43.134Z,33.83
2019-02-19T08:41:13.516Z,34.50
2019-02-19T08:43:43.896Z,36.80
2019-02-19T08:46:14.293Z,28.98
2019-02-19T08:48:44.710Z,30.05
2019-02-19T08:51:15.452Z,33.28
2019-02-19T08:53:45.855Z,33.53
2019-02-19T08:56:16.196Z,32.07
2019-02-19T08:58:46.605Z,24.97
2019-02-19T09:01:16.956Z,29.03
2019-02-19T09:03:47.320Z,32.77
2019-02-19T09:06:17.684Z,29.93
2019-02-19T09:08:48.563Z,29.07
2019-02-19T09:11:18.901Z,30.27
2019-02-19T09:13:49.308Z,25.30
2019-02-19T09:16:19.635Z,30.67
2019-02-19T09:18:51.131Z,30.40
2019-02-19T09:21:21.570Z,34.67
2019-02-19T09:23:51.954Z,31.00
2019-02-19T09:26:22.356Z,33.00
2019-02-19T09:28:52.713Z,33.30
2019-02-19T09:31:23.073Z,31.53
2019-02-19T09:33:53.474Z,30.90
2019-02-19T09:36:23.868Z,24.80
2019-02-19T09:38:55.931Z,31.37
2019-02-19T09:41:26.312Z,27.77
2019-02-19T09:43:56.664Z,26.97
2019-02-19T09:46:27.022Z,29.80
2019-02-19T09:49:19.421Z,29.20
2019-02-19T09:51:49.772Z,30.10
2019-02-19T09:54:20.100Z,27.30
2019-02-19T09:56:50.420Z,27.90
2019-02-19T09:59:20.756Z,31.50
2019-02-19T10:01:51.085Z,27.70
2019-02-19T10:04:21.432Z,28.53
2019-02-19T10:06:52.124Z,26.80
2019-02-19T10:09:23.568Z,26.20
2019-02-19T10:11:53.922Z,27.40
2019-02-19T10:14:24.279Z,28.23
2019-02-19T10:16:54.649Z,26.90
2019-02-19T10:19:26.084Z,28.37
2019-02-19T10:21:56.572Z,32.63
2019-02-19T10:24:26.962Z,29.50
2019-02-19T10:26:57.377Z,26.97
2019-02-19T10:29:28.900Z,29.40
2019-02-19T10:31:59.440Z,25.80
2019-02-19T10:34:29.829Z,28.13
2019-02-19T10:37:00.258Z,26.20
2019-02-19T10:39:31.867Z,27.37
2019-02-19T10:42:02.396Z,23.53
2019-02-19T10:44:32.771Z,27.37
2019-02-19T10:47:03.174Z,32.20
2019-02-19T10:49:33.563Z,26.93
2019-02-19T10:52:03.956Z,24.30
2019-02-19T10:54:34.306Z,26.30
2019-02-19T10:57:04.719Z,25.07
2019-02-19T10:59:35.084Z,26.33
2019-02-19T11:02:05.452Z,27.50
2019-02-19T11:04:35.841Z,24.37
2019-02-19T11:07:06.156Z,26.40
2019-02-19T11:09:37.048Z,22.17
2019-02-19T11:12:07.428Z,22.90
2019-02-19T11:14:37.794Z,29.10
2019-02-19T11:17:08.186Z,27.10
2019-02-19T11:19:38.504Z,26.17
2019-02-19T11:22:08.881Z,22.67
2019-02-19T11:24:40.266Z,22.03
2019-02-19T11:27:11.043Z,25.03
2019-02-19T11:29:41.410Z,22.77
2019-02-19T11:32:11.790Z,23.00
2019-02-19T11:34:42.206Z,23.37
2019-02-19T11:37:12.590Z,18.90
2019-02-19T11:39:43.526Z,25.30
2019-02-19T11:42:13.930Z,20.27
2019-02-19T11:44:44.263Z,20.10
2019-02-19T11:47:14.672Z,24.80
2019-02-19T11:49:45.045Z,18.40
2019-02-19T11:52:15.420Z,21.03
2019-02-19T11:54:57.713Z,22.73
2019-02-19T12:00:34.425Z,25.23
2019-02-19T12:03:05.596Z,21.63
2019-02-19T12:05:35.974Z,17.33
2019-02-19T12:08:06.278Z,18.80
2019-02-19T12:10:37.028Z,24.90
2019-02-19T12:13:07.390Z,21.60
2019-02-19T12:15:37.760Z,23.30
2019-02-19T12:18:08.382Z,18.77
2019-02-19T12:20:38.831Z,16.87
2019-02-19T12:23:09.200Z,16.60
2019-02-19T12:25:40.958Z,18.67
2019-02-19T12:28:11.380Z,16.90
2019-02-19T12:30:41.728Z,22.37
2019-02-19T12:33:12.086Z,18.30
2019-02-19T12:35:42.460Z,16.30
2019-02-19T12:38:12.824Z,17.97
2019-02-19T12:40:43.537Z,19.37
2019-02-19T12:43:13.948Z,17.20
2019-02-19T12:45:44.288Z,14.87
2019-02-19T12:48:14.660Z,18.70
2019-02-19T12:50:45.020Z,18.10
2019-02-19T12:53:15.370Z,17.63
2019-02-19T12:55:45.782Z,21.83
2019-02-19T12:58:16.141Z,17.10
2019-02-19T13:00:46.651Z,16.50
2019-02-19T13:03:17.070Z,20.93
2019-02-19T13:05:47.460Z,21.17
2019-02-19T13:08:17.866Z,17.63
2019-02-19T13:10:49.718Z,18.17
2019-02-19T13:13:20.050Z,21.63
2019-02-19T13:15:50.430Z,18.00
2019-02-19T13:18:21.208Z,20.67
2019-02-19T13:20:51.546Z,16.90
2019-02-19T13:23:22.912Z,22.83
2019-02-19T13:25:53.304Z,22.13
2019-02-19T13:28:23.644Z,18.20
2019-02-19T13:30:54.027Z,18.40
2019-02-19T13:33:24.362Z,20.07
2019-02-19T13:35:54.761Z,19.77
2019-02-19T13:38:25.119Z,15.93
2019-02-19T13:40:56.236Z,20.90
2019-02-19T13:43:26.610Z,16.57
2019-02-19T13:45:56.981Z,17.60
2019-02-19T13:48:27.317Z,20.07
2019-02-19T13:50:57.690Z,14.93
2019-02-19T13:53:34.948Z,19.93
2019-02-19T13:56:05.732Z,16.60
2019-02-19T13:58:36.164Z,17.70
2019-02-19T14:01:06.558Z,23.20
2019-02-19T14:03:36.906Z,16.63
2019-02-19T14:06:07.282Z,16.63
2019-02-19T14:08:37.648Z,17.23
2019-02-19T14:11:08.568Z,20.50
2019-02-19T14:13:41.474Z,17.00
2019-02-19T14:16:21.851Z,18.90
2019-02-19T14:18:56.354Z,16.43
2019-02-19T14:21:44.323Z,21.67
2019-02-19T14:24:42.607Z,15.80
2019-02-19T14:27:40.937Z,19.07
2019-02-19T14:30:34.266Z,14.60
2019-02-19T14:33:24.745Z,18.07
2019-02-19T14:36:17.355Z,18.20
2019-02-19T14:38:58.432Z,15.97
2019-02-19T14:41:49.009Z,19.27
2019-02-19T14:44:38.397Z,18.30
2019-02-19T14:47:30.942Z,21.40
2019-02-19T14:50:32.174Z,18.80
2019-02-19T14:53:27.565Z,20.53
2019-02-19T14:56:32.173Z,20.67
2019-02-19T14:59:19.423Z,21.03
2019-02-19T15:02:07.299Z,18.83
2019-02-19T15:04:55.271Z,16.90
2019-02-19T15:07:34.168Z,19.00
2019-02-19T15:10:33.119Z,16.73
2019-02-19T15:13:22.814Z,15.50
2019-02-19T15:16:24.213Z,20.73
2019-02-19T15:19:06.299Z,22.97
2019-02-19T15:21:55.606Z,15.87
2019-02-19T15:24:43.574Z,16.10
2019-02-19T15:27:41.933Z,17.63
2019-02-19T15:30:34.311Z,19.13
2019-02-19T15:33:30.024Z,18.37
2019-02-19T15:36:28.354Z,18.60
2019-02-19T15:39:33.093Z,20.40
2019-02-19T15:42:25.492Z,19.43
2019-02-19T15:45:14.779Z,21.43
2019-02-19T15:48:04.144Z,24.20
2019-02-19T15:50:52.340Z,22.93
2019-02-19T15:53:39.821Z,21.93
2019-02-19T15:56:34.114Z,33.43
2019-02-19T15:59:41.586Z,27.73
2019-02-19T16:02:34.059Z,23.00
2019-02-19T16:05:35.636Z,18.33
2019-02-19T16:08:16.633Z,19.07
2019-02-19T16:10:57.516Z,22.03
2019-02-19T16:13:38.574Z,22.27
2019-02-19T16:16:26.802Z,25.03
2019-02-19T16:19:14.051Z,19.53
2019-02-19T16:22:00.462Z,24.77
2019-02-19T16:24:48.430Z,19.70
2019-02-19T16:27:40.779Z,19.73
2019-02-19T16:30:33.090Z,24.93
2019-02-19T16:33:34.775Z,23.47
2019-02-19T16:36:11.527Z,25.93
2019-02-19T16:38:59.189Z,25.53
2019-02-19T16:41:51.374Z,28.97
2019-02-19T16:48:01.977Z,22.90
2019-02-19T16:50:46.744Z,24.30
2019-02-19T16:53:25.025Z,21.83
2019-02-19T16:56:08.416Z,25.53
2019-02-19T16:59:05.480Z,26.20
2019-02-19T17:02:01.102Z,22.47
2019-02-19T17:04:53.136Z,21.57
2019-02-19T17:07:30.382Z,24.17
2019-02-19T17:10:24.076Z,23.10
2019-02-19T17:13:05.953Z,27.60
2019-02-19T17:16:13.511Z,21.97
2019-02-19T17:19:03.255Z,28.27
2019-02-19T17:21:45.919Z,25.80
2019-02-19T17:24:29.888Z,22.83
2019-02-19T17:27:38.452Z,23.97
2019-02-19T17:30:31.664Z,27.90
2019-02-19T17:33:24.036Z,23.77
2019-02-19T17:36:19.395Z,26.27
2019-02-19T17:39:09.236Z,28.00
2019-02-19T17:41:44.773Z,25.93
2019-02-19T17:44:20.076Z,25.57
2019-02-19T17:47:14.278Z,28.60
2019-02-19T17:50:12.863Z,37.27
2019-02-19T17:53:08.093Z,33.40
2019-02-19T17:56:06.780Z,32.33
2019-02-19T17:58:57.671Z,27.60
2019-02-19T18:01:39.061Z,28.00
2019-02-19T18:04:28.390Z,30.62
2019-02-19T18:07:23.485Z,29.10
2019-02-19T18:10:18.731Z,30.72
2019-02-19T18:13:00.282Z,30.63
2019-02-19T18:15:57.526Z,33.57
2019-02-19T18:18:33.867Z,27.43
2019-02-19T18:21:05.278Z,26.20
2019-02-19T18:23:35.631Z,28.33
2019-02-19T18:26:06.028Z,27.30
2019-02-19T18:28:36.412Z,32.53
2019-02-19T18:31:06.833Z,31.73
2019-02-19T18:33:37.238Z,27.73
2019-02-19T18:36:07.624Z,25.00
2019-02-19T18:38:37.991Z,27.23
2019-02-19T18:41:08.500Z,29.77
2019-02-19T18:43:38.836Z,26.33
2019-02-19T18:46:09.189Z,27.20
2019-02-19T18:48:39.679Z,31.53
2019-02-19T18:51:10.121Z,26.05
2019-02-19T18:53:40.553Z,30.93
2019-02-19T18:56:10.944Z,33.55
2019-02-19T18:58:41.242Z,32.63
2019-02-19T19:01:12.178Z,29.57
2019-02-19T19:03:43.656Z,27.43
2019-02-19T19:06:13.984Z,32.03
2019-02-19T19:08:44.338Z,32.50
2019-02-19T19:11:14.681Z,34.60
2019-02-19T19:13:45.052Z,28.43
2019-02-19T19:16:15.396Z,28.85
2019-02-19T19:18:45.772Z,35.78
2019-02-19T19:21:16.088Z,29.40
2019-02-19T19:23:46.876Z,28.53
2019-02-19T19:26:18.225Z,24.20
2019-02-19T19:28:48.629Z,26.60
2019-02-19T19:31:19.025Z,23.30
2019-02-19T19:33:49.443Z,18.20
2019-02-19T19:36:19.815Z,17.05
2019-02-19T19:38:50.605Z,19.93
2019-02-19T19:41:20.964Z,17.57
2019-02-19T19:43:51.320Z,20.20
2019-02-19T19:46:21.692Z,16.20
2019-02-19T19:48:52.159Z,14.67
2019-02-19T19:51:23.293Z,17.33
2019-02-19T19:53:53.633Z,19.90
2019-02-19T19:56:24.073Z,19.77
2019-02-19T19:58:54.462Z,19.15
2019-02-19T20:01:25.303Z,18.23
2019-02-19T20:03:55.908Z,25.30
2019-02-19T20:06:26.254Z,21.30
2019-02-19T20:08:56.591Z,32.85
2019-02-19T20:11:26.953Z,35.92
2019-02-19T20:13:57.314Z,27.93
2019-02-19T20:16:27.733Z,30.97
2019-02-19T20:18:58.109Z,34.75
2019-02-19T20:21:29.485Z,31.75
2019-02-19T20:24:00.155Z,30.57
2019-02-19T20:26:30.642Z,29.92
2019-02-19T20:29:02.764Z,29.27
2019-02-19T20:31:33.204Z,25.00
2019-02-19T20:34:06.903Z,29.52
2019-02-19T20:36:37.667Z,24.90
2019-02-19T20:39:08.115Z,27.85
2019-02-19T20:41:40.143Z,27.80
2019-02-19T20:44:10.917Z,25.32
2019-02-19T20:46:41.315Z,21.30
2019-02-19T20:49:11.726Z,27.10
2019-02-19T20:51:43.489Z,32.15
2019-02-19T20:54:13.938Z,28.65
2019-02-19T20:56:44.417Z,27.20
2019-02-19T20:59:14.775Z,23.42
2019-02-19T21:01:45.169Z,28.23
2019-02-19T21:04:15.515Z,19.50
2019-02-19T21:06:46.430Z,19.87
2019-02-19T21:09:17.131Z,22.10
2019-02-19T21:11:47.507Z,25.48
2019-02-19T21:14:17.875Z,28.00
2019-02-19T21:16:48.252Z,23.18
2019-02-19T21:19:18.598Z,23.30
2019-02-19T21:21:49.708Z,22.95
2019-02-19T21:24:20.055Z,24.10
2019-02-19T21:26:50.426Z,24.92
2019-02-19T21:29:22.317Z,24.82
2019-02-19T21:31:52.772Z,23.62
2019-02-19T21:34:23.218Z,25.70
2019-02-19T21:36:53.665Z,23.20
2019-02-19T21:39:24.088Z,19.30
2019-02-19T21:41:54.905Z,19.42
2019-02-19T21:44:25.264Z,19.27
2019-02-19T21:46:56.333Z,19.75
2019-02-19T21:49:26.756Z,23.57
2019-02-19T21:51:58.545Z,26.10
2019-02-19T21:54:28.995Z,20.00
2019-02-19T21:56:59.336Z,20.15
2019-02-19T21:59:29.946Z,19.42
2019-02-19T22:02:00.387Z,20.95
2019-02-19T22:04:32.049Z,16.75
2019-02-19T22:07:02.440Z,18.87
2019-02-19T22:09:32.878Z,14.65
2019-02-19T22:12:03.236Z,17.85
2019-02-19T22:14:33.637Z,17.50
2019-02-19T22:17:04.019Z,18.05
2019-02-19T22:19:34.372Z,20.50
2019-02-19T22:22:12.577Z,16.52
2019-02-19T22:24:43.004Z,17.12
2019-02-19T22:27:13.412Z,20.90
2019-02-19T22:29:43.781Z,16.67
2019-02-19T22:32:16.310Z,19.65
2019-02-19T22:34:47.622Z,18.60
2019-02-19T22:37:18.446Z,20.95
2019-02-19T22:39:48.784Z,18.30
2019-02-19T22:42:19.154Z,18.42
2019-02-19T22:44:49.469Z,18.00
2019-02-19T22:47:19.836Z,18.25
2019-02-19T22:49:50.179Z,16.90
2019-02-19T22:52:21.440Z,23.62
2019-02-19T22:55:04.320Z,17.20
2019-02-19T22:57:34.722Z,19.75
2019-02-19T23:00:08.345Z,21.12
2019-02-19T23:02:40.379Z,22.55
2019-02-19T23:05:10.829Z,19.67
2019-02-19T23:07:41.234Z,25.70
2019-02-19T23:10:11.612Z,23.95
2019-02-19T23:12:42.136Z,22.93
2019-02-19T23:15:12.540Z,23.75
2019-02-19T23:17:43.026Z,28.15
2019-02-19T23:20:13.395Z,24.07
2019-02-19T23:22:44.790Z,22.70
2019-02-19T23:25:15.225Z,25.95
2019-02-19T23:27:45.714Z,30.43
2019-02-19T23:30:17.809Z,25.90
2019-02-19T23:32:48.313Z,22.05
2019-02-19T23:35:26.453Z,24.60
2019-02-19T23:37:57.048Z,29.65
2019-02-19T23:40:27.447Z,25.35
2019-02-19T23:42:59.668Z,25.90
2019-02-19T23:45:30.090Z,22.82
2019-02-19T23:48:00.718Z,25.10
2019-02-19T23:50:31.193Z,24.15
2019-02-19T23:53:05.806Z,20.82
2019-02-19T23:55:36.232Z,23.25
2019-02-19T23:58:06.545Z,21.82
